sensor_id;sensor_type;location;lat;lon;timestamp;P1;durP1;ratioP1;P2;durP2;ratioP2
20776;SDS011;10548;47.504;8.248;2024-03-08T00:00:06;103.73;;;44.63;;
20776;SDS011;10548;47.504;8.248;2024-03-08T00:02:41;104.27;;;47.40;;
20776;SDS011;10548;47.504;8.248;2024-03-08T00:05:10;93.90;;;45.30;;
20776;SDS011;10548;47.504;8.248;2024-03-08T00:07:38;90.53;;;44.10;;
20776;SDS011;10548;47.504;8.248;2024-03-08T00:10:07;89.53;;;43.07;;
20776;SDS011;10548;47.504;8.248;2024-03-08T00:12:40;92.80;;;45.37;;
20776;SDS011;10548;47.504;8.248;2024-03-08T00:15:13;89.00;;;43.70;;
20776;SDS011;10548;47.504;8.248;2024-03-08T00:17:44;81.17;;;41.37;;
20776;SDS011;10548;47.504;8.248;2024-03-08T00:20:13;102.60;;;45.23;;
20776;SDS011;10548;47.504;8.248;2024-03-08T00:22:41;86.63;;;42.07;;
20776;SDS011;10548;47.504;8.248;2024-03-08T00:25:10;105.13;;;45.30;;
20776;SDS011;10548;47.504;8.248;2024-03-08T00:27:41;91.40;;;44.57;;
20776;SDS011;10548;47.504;8.248;2024-03-08T00:30:09;98.20;;;46.33;;
20776;SDS011;10548;47.504;8.248;2024-03-08T00:32:39;105.60;;;45.90;;
20776;SDS011;10548;47.504;8.248;2024-03-08T00:35:07;106.20;;;50.07;;
20776;SDS011;10548;47.504;8.248;2024-03-08T00:37:35;97.70;;;45.13;;
20776;SDS011;10548;47.504;8.248;2024-03-08T00:40:03;113.37;;;48.03;;
20776;SDS011;10548;47.504;8.248;2024-03-08T00:42:36;94.43;;;43.10;;
20776;SDS011;10548;47.504;8.248;2024-03-08T00:45:05;102.27;;;46.07;;
20776;SDS011;10548;47.504;8.248;2024-03-08T00:47:33;107.70;;;48.67;;
20776;SDS011;10548;47.504;8.248;2024-03-08T00:50:01;92.63;;;41.03;;
20776;SDS011;10548;47.504;8.248;2024-03-08T00:52:31;102.43;;;46.67;;
20776;SDS011;10548;47.504;8.248;2024-03-08T00:54:58;106.60;;;49.97;;
20776;SDS011;10548;47.504;8.248;2024-03-08T00:57:26;107.03;;;48.60;;
20776;SDS011;10548;47.504;8.248;2024-03-08T00:59:54;90.47;;;43.90;;
20776;SDS011;10548;47.504;8.248;2024-03-08T01:02:23;88.67;;;43.37;;
20776;SDS011;10548;47.504;8.248;2024-03-08T01:04:50;100.50;;;46.50;;
20776;SDS011;10548;47.504;8.248;2024-03-08T01:07:18;94.10;;;44.40;;
20776;SDS011;10548;47.504;8.248;2024-03-08T01:09:46;91.47;;;40.07;;
20776;SDS011;10548;47.504;8.248;2024-03-08T01:12:14;99.07;;;42.67;;
20776;SDS011;10548;47.504;8.248;2024-03-08T01:14:41;85.23;;;41.43;;
20776;SDS011;10548;47.504;8.248;2024-03-08T01:17:09;99.17;;;44.67;;
20776;SDS011;10548;47.504;8.248;2024-03-08T01:19:37;101.63;;;45.00;;
20776;SDS011;10548;47.504;8.248;2024-03-08T01:22:05;84.87;;;40.80;;
20776;SDS011;10548;47.504;8.248;2024-03-08T01:24:32;104.80;;;47.07;;
20776;SDS011;10548;47.504;8.248;2024-03-08T01:27:01;81.57;;;41.47;;
20776;SDS011;10548;47.504;8.248;2024-03-08T01:29:29;81.30;;;40.50;;
20776;SDS011;10548;47.504;8.248;2024-03-08T01:31:57;80.90;;;39.93;;
20776;SDS011;10548;47.504;8.248;2024-03-08T01:34:27;96.37;;;42.63;;
20776;SDS011;10548;47.504;8.248;2024-03-08T01:36:55;101.93;;;44.37;;
20776;SDS011;10548;47.504;8.248;2024-03-08T01:39:23;86.90;;;42.20;;
20776;SDS011;10548;47.504;8.248;2024-03-08T01:41:51;90.47;;;42.83;;
20776;SDS011;10548;47.504;8.248;2024-03-08T01:44:18;80.97;;;38.50;;
20776;SDS011;10548;47.504;8.248;2024-03-08T01:46:47;88.03;;;42.43;;
20776;SDS011;10548;47.504;8.248;2024-03-08T01:49:19;95.90;;;43.27;;
20776;SDS011;10548;47.504;8.248;2024-03-08T01:51:48;104.80;;;46.57;;
20776;SDS011;10548;47.504;8.248;2024-03-08T01:54:17;101.30;;;45.07;;
20776;SDS011;10548;47.504;8.248;2024-03-08T01:56:46;107.20;;;45.07;;
20776;SDS011;10548;47.504;8.248;2024-03-08T01:59:15;95.90;;;41.13;;
20776;SDS011;10548;47.504;8.248;2024-03-08T02:01:43;108.00;;;48.43;;
20776;SDS011;10548;47.504;8.248;2024-03-08T02:04:10;87.97;;;41.90;;
20776;SDS011;10548;47.504;8.248;2024-03-08T02:06:38;83.70;;;38.17;;
20776;SDS011;10548;47.504;8.248;2024-03-08T02:09:06;84.23;;;38.67;;
20776;SDS011;10548;47.504;8.248;2024-03-08T02:11:34;81.60;;;37.27;;
20776;SDS011;10548;47.504;8.248;2024-03-08T02:14:03;78.53;;;39.80;;
20776;SDS011;10548;47.504;8.248;2024-03-08T02:16:33;91.47;;;40.23;;
20776;SDS011;10548;47.504;8.248;2024-03-08T02:19:01;80.10;;;36.00;;
20776;SDS011;10548;47.504;8.248;2024-03-08T02:21:28;91.53;;;40.80;;
20776;SDS011;10548;47.504;8.248;2024-03-08T02:23:57;106.77;;;41.13;;
20776;SDS011;10548;47.504;8.248;2024-03-08T02:26:25;98.10;;;42.23;;
20776;SDS011;10548;47.504;8.248;2024-03-08T02:28:53;84.70;;;38.37;;
20776;SDS011;10548;47.504;8.248;2024-03-08T02:31:21;93.20;;;42.50;;
20776;SDS011;10548;47.504;8.248;2024-03-08T02:33:49;232.13;;;55.83;;
20776;SDS011;10548;47.504;8.248;2024-03-08T02:36:16;522.10;;;79.80;;
20776;SDS011;10548;47.504;8.248;2024-03-08T02:38:44;318.27;;;61.10;;
20776;SDS011;10548;47.504;8.248;2024-03-08T02:41:12;131.50;;;46.87;;
20776;SDS011;10548;47.504;8.248;2024-03-08T02:43:39;95.60;;;42.50;;
20776;SDS011;10548;47.504;8.248;2024-03-08T02:46:07;205.77;;;54.23;;
20776;SDS011;10548;47.504;8.248;2024-03-08T02:48:35;111.23;;;43.90;;
20776;SDS011;10548;47.504;8.248;2024-03-08T02:51:03;161.00;;;51.93;;
20776;SDS011;10548;47.504;8.248;2024-03-08T02:53:31;124.10;;;45.43;;
20776;SDS011;10548;47.504;8.248;2024-03-08T02:55:58;115.13;;;46.27;;
20776;SDS011;10548;47.504;8.248;2024-03-08T02:58:26;167.67;;;52.43;;
20776;SDS011;10548;47.504;8.248;2024-03-08T03:00:54;281.57;;;62.07;;
20776;SDS011;10548;47.504;8.248;2024-03-08T03:03:24;226.90;;;57.03;;
20776;SDS011;10548;47.504;8.248;2024-03-08T03:05:53;298.13;;;61.73;;
20776;SDS011;10548;47.504;8.248;2024-03-08T03:08:22;261.80;;;57.57;;
20776;SDS011;10548;47.504;8.248;2024-03-08T03:10:50;218.17;;;49.93;;
20776;SDS011;10548;47.504;8.248;2024-03-08T03:13:18;119.23;;;42.67;;
20776;SDS011;10548;47.504;8.248;2024-03-08T03:15:46;88.87;;;37.47;;
20776;SDS011;10548;47.504;8.248;2024-03-08T03:18:13;98.73;;;41.13;;
20776;SDS011;10548;47.504;8.248;2024-03-08T03:20:42;68.10;;;34.77;;
20776;SDS011;10548;47.504;8.248;2024-03-08T03:23:11;81.97;;;36.13;;
20776;SDS011;10548;47.504;8.248;2024-03-08T03:25:42;97.60;;;39.10;;
20776;SDS011;10548;47.504;8.248;2024-03-08T03:28:10;68.97;;;33.63;;
20776;SDS011;10548;47.504;8.248;2024-03-08T03:30:41;66.83;;;33.43;;
20776;SDS011;10548;47.504;8.248;2024-03-08T03:33:10;98.07;;;41.10;;
20776;SDS011;10548;47.504;8.248;2024-03-08T03:35:39;69.90;;;33.40;;
20776;SDS011;10548;47.504;8.248;2024-03-08T03:38:08;79.33;;;37.60;;
20776;SDS011;10548;47.504;8.248;2024-03-08T03:40:38;96.90;;;39.50;;
20776;SDS011;10548;47.504;8.248;2024-03-08T03:43:06;85.47;;;37.40;;
20776;SDS011;10548;47.504;8.248;2024-03-08T03:45:37;159.33;;;49.33;;
20776;SDS011;10548;47.504;8.248;2024-03-08T03:48:05;76.60;;;36.63;;
20776;SDS011;10548;47.504;8.248;2024-03-08T03:50:34;66.30;;;34.53;;
20776;SDS011;10548;47.504;8.248;2024-03-08T03:53:03;68.70;;;33.53;;
20776;SDS011;10548;47.504;8.248;2024-03-08T03:55:31;62.10;;;32.27;;
20776;SDS011;10548;47.504;8.248;2024-03-08T03:57:59;61.27;;;32.17;;
20776;SDS011;10548;47.504;8.248;2024-03-08T04:00:28;60.40;;;31.10;;
20776;SDS011;10548;47.504;8.248;2024-03-08T04:03:07;69.17;;;35.53;;
20776;SDS011;10548;47.504;8.248;2024-03-08T04:05:35;68.43;;;33.67;;
20776;SDS011;10548;47.504;8.248;2024-03-08T04:08:03;97.70;;;39.97;;
20776;SDS011;10548;47.504;8.248;2024-03-08T04:10:31;85.77;;;40.07;;
20776;SDS011;10548;47.504;8.248;2024-03-08T04:12:59;60.10;;;30.40;;
20776;SDS011;10548;47.504;8.248;2024-03-08T04:15:26;53.07;;;29.13;;
20776;SDS011;10548;47.504;8.248;2024-03-08T04:17:54;47.83;;;25.80;;
20776;SDS011;10548;47.504;8.248;2024-03-08T04:20:22;53.30;;;29.90;;
20776;SDS011;10548;47.504;8.248;2024-03-08T04:22:49;49.30;;;28.20;;
20776;SDS011;10548;47.504;8.248;2024-03-08T04:25:17;45.80;;;27.20;;
20776;SDS011;10548;47.504;8.248;2024-03-08T04:27:45;50.47;;;28.33;;
20776;SDS011;10548;47.504;8.248;2024-03-08T04:30:13;57.93;;;29.77;;
20776;SDS011;10548;47.504;8.248;2024-03-08T04:32:41;47.73;;;27.97;;
20776;SDS011;10548;47.504;8.248;2024-03-08T04:35:09;61.43;;;31.83;;
20776;SDS011;10548;47.504;8.248;2024-03-08T04:37:39;53.37;;;30.10;;
20776;SDS011;10548;47.504;8.248;2024-03-08T04:40:07;47.57;;;29.00;;
20776;SDS011;10548;47.504;8.248;2024-03-08T04:42:38;54.73;;;29.47;;
20776;SDS011;10548;47.504;8.248;2024-03-08T04:45:06;51.47;;;28.00;;
20776;SDS011;10548;47.504;8.248;2024-03-08T04:47:40;53.97;;;29.00;;
20776;SDS011;10548;47.504;8.248;2024-03-08T04:50:08;51.60;;;27.93;;
20776;SDS011;10548;47.504;8.248;2024-03-08T04:52:36;49.60;;;28.30;;
20776;SDS011;10548;47.504;8.248;2024-03-08T04:55:04;50.17;;;28.17;;
20776;SDS011;10548;47.504;8.248;2024-03-08T04:57:32;55.40;;;29.93;;
20776;SDS011;10548;47.504;8.248;2024-03-08T05:00:00;50.93;;;28.77;;
20776;SDS011;10548;47.504;8.248;2024-03-08T05:02:28;49.40;;;28.90;;
20776;SDS011;10548;47.504;8.248;2024-03-08T05:04:55;51.80;;;29.20;;
20776;SDS011;10548;47.504;8.248;2024-03-08T05:07:23;50.03;;;28.40;;
20776;SDS011;10548;47.504;8.248;2024-03-08T05:09:50;53.23;;;29.23;;
20776;SDS011;10548;47.504;8.248;2024-03-08T05:12:18;50.73;;;29.27;;
20776;SDS011;10548;47.504;8.248;2024-03-08T05:14:46;51.53;;;29.57;;
20776;SDS011;10548;47.504;8.248;2024-03-08T05:17:16;51.13;;;27.37;;
20776;SDS011;10548;47.504;8.248;2024-03-08T05:19:44;51.33;;;28.60;;
20776;SDS011;10548;47.504;8.248;2024-03-08T05:22:12;47.77;;;26.60;;
20776;SDS011;10548;47.504;8.248;2024-03-08T05:24:40;49.07;;;27.90;;
20776;SDS011;10548;47.504;8.248;2024-03-08T05:27:08;51.00;;;27.00;;
20776;SDS011;10548;47.504;8.248;2024-03-08T05:29:35;53.00;;;29.67;;
20776;SDS011;10548;47.504;8.248;2024-03-08T05:32:03;53.73;;;29.80;;
20776;SDS011;10548;47.504;8.248;2024-03-08T05:34:31;47.37;;;27.13;;
20776;SDS011;10548;47.504;8.248;2024-03-08T05:36:59;50.83;;;29.37;;
20776;SDS011;10548;47.504;8.248;2024-03-08T05:39:27;51.33;;;29.07;;
20776;SDS011;10548;47.504;8.248;2024-03-08T05:41:54;49.73;;;28.17;;
20776;SDS011;10548;47.504;8.248;2024-03-08T05:44:22;49.10;;;27.47;;
20776;SDS011;10548;47.504;8.248;2024-03-08T05:46:50;49.23;;;27.90;;
20776;SDS011;10548;47.504;8.248;2024-03-08T05:49:17;46.10;;;25.70;;
20776;SDS011;10548;47.504;8.248;2024-03-08T05:51:45;50.90;;;30.17;;
20776;SDS011;10548;47.504;8.248;2024-03-08T05:54:14;53.60;;;29.10;;
20776;SDS011;10548;47.504;8.248;2024-03-08T05:56:46;59.17;;;28.90;;
20776;SDS011;10548;47.504;8.248;2024-03-08T05:59:14;50.30;;;29.27;;
20776;SDS011;10548;47.504;8.248;2024-03-08T06:01:42;53.10;;;31.00;;
20776;SDS011;10548;47.504;8.248;2024-03-08T06:04:10;51.67;;;28.30;;
20776;SDS011;10548;47.504;8.248;2024-03-08T06:06:38;47.37;;;28.10;;
20776;SDS011;10548;47.504;8.248;2024-03-08T06:09:07;48.90;;;27.43;;
20776;SDS011;10548;47.504;8.248;2024-03-08T06:11:39;54.33;;;29.87;;
20776;SDS011;10548;47.504;8.248;2024-03-08T06:14:08;50.57;;;28.10;;
20776;SDS011;10548;47.504;8.248;2024-03-08T06:16:35;50.10;;;29.10;;
20776;SDS011;10548;47.504;8.248;2024-03-08T06:19:04;46.93;;;27.70;;
20776;SDS011;10548;47.504;8.248;2024-03-08T06:21:32;50.33;;;28.13;;
20776;SDS011;10548;47.504;8.248;2024-03-08T06:24:00;48.87;;;27.67;;
20776;SDS011;10548;47.504;8.248;2024-03-08T06:26:28;59.30;;;26.60;;
20776;SDS011;10548;47.504;8.248;2024-03-08T06:28:57;50.80;;;28.00;;
20776;SDS011;10548;47.504;8.248;2024-03-08T06:31:25;46.77;;;26.97;;
20776;SDS011;10548;47.504;8.248;2024-03-08T06:33:53;47.93;;;27.00;;
20776;SDS011;10548;47.504;8.248;2024-03-08T06:36:24;47.57;;;26.53;;
20776;SDS011;10548;47.504;8.248;2024-03-08T06:38:52;48.67;;;26.13;;
20776;SDS011;10548;47.504;8.248;2024-03-08T06:41:20;51.33;;;27.00;;
20776;SDS011;10548;47.504;8.248;2024-03-08T06:43:48;49.00;;;25.83;;
20776;SDS011;10548;47.504;8.248;2024-03-08T06:46:18;51.97;;;27.53;;
20776;SDS011;10548;47.504;8.248;2024-03-08T06:48:47;49.60;;;25.00;;
20776;SDS011;10548;47.504;8.248;2024-03-08T06:51:17;54.87;;;27.70;;
20776;SDS011;10548;47.504;8.248;2024-03-08T06:53:44;45.10;;;26.27;;
20776;SDS011;10548;47.504;8.248;2024-03-08T06:56:12;44.23;;;24.63;;
20776;SDS011;10548;47.504;8.248;2024-03-08T06:58:40;47.70;;;25.60;;
20776;SDS011;10548;47.504;8.248;2024-03-08T07:01:09;43.40;;;24.93;;
20776;SDS011;10548;47.504;8.248;2024-03-08T07:03:41;45.43;;;25.23;;
20776;SDS011;10548;47.504;8.248;2024-03-08T07:06:11;47.93;;;25.67;;
20776;SDS011;10548;47.504;8.248;2024-03-08T07:08:39;44.87;;;25.53;;
20776;SDS011;10548;47.504;8.248;2024-03-08T07:11:07;48.00;;;24.17;;
20776;SDS011;10548;47.504;8.248;2024-03-08T07:13:34;49.37;;;27.03;;
20776;SDS011;10548;47.504;8.248;2024-03-08T07:16:02;49.97;;;27.63;;
20776;SDS011;10548;47.504;8.248;2024-03-08T07:18:30;50.33;;;26.47;;
20776;SDS011;10548;47.504;8.248;2024-03-08T07:20:58;50.63;;;26.97;;
20776;SDS011;10548;47.504;8.248;2024-03-08T07:23:26;45.70;;;25.83;;
20776;SDS011;10548;47.504;8.248;2024-03-08T07:26:16;47.67;;;25.60;;
20776;SDS011;10548;47.504;8.248;2024-03-08T07:28:45;44.40;;;25.93;;
20776;SDS011;10548;47.504;8.248;2024-03-08T07:31:13;46.43;;;25.00;;
20776;SDS011;10548;47.504;8.248;2024-03-08T07:33:53;47.43;;;26.33;;
20776;SDS011;10548;47.504;8.248;2024-03-08T07:36:21;49.53;;;26.77;;
20776;SDS011;10548;47.504;8.248;2024-03-08T07:38:52;45.13;;;24.70;;
20776;SDS011;10548;47.504;8.248;2024-03-08T07:41:20;43.03;;;24.90;;
20776;SDS011;10548;47.504;8.248;2024-03-08T07:43:49;45.57;;;25.20;;
20776;SDS011;10548;47.504;8.248;2024-03-08T07:46:16;45.50;;;26.40;;
20776;SDS011;10548;47.504;8.248;2024-03-08T07:48:45;43.27;;;24.03;;
20776;SDS011;10548;47.504;8.248;2024-03-08T07:51:15;47.13;;;26.30;;
20776;SDS011;10548;47.504;8.248;2024-03-08T07:53:44;50.97;;;26.60;;
20776;SDS011;10548;47.504;8.248;2024-03-08T07:56:12;46.43;;;24.77;;
20776;SDS011;10548;47.504;8.248;2024-03-08T07:58:40;47.93;;;26.50;;
20776;SDS011;10548;47.504;8.248;2024-03-08T08:01:08;44.77;;;25.80;;
20776;SDS011;10548;47.504;8.248;2024-03-08T08:03:43;45.57;;;25.80;;
20776;SDS011;10548;47.504;8.248;2024-03-08T08:06:10;42.07;;;25.00;;
20776;SDS011;10548;47.504;8.248;2024-03-08T08:08:42;45.60;;;24.53;;
20776;SDS011;10548;47.504;8.248;2024-03-08T08:11:10;42.30;;;25.07;;
20776;SDS011;10548;47.504;8.248;2024-03-08T08:13:38;45.10;;;24.67;;
20776;SDS011;10548;47.504;8.248;2024-03-08T08:16:06;42.93;;;24.00;;
20776;SDS011;10548;47.504;8.248;2024-03-08T08:18:34;44.97;;;25.40;;
20776;SDS011;10548;47.504;8.248;2024-03-08T08:21:02;39.57;;;22.90;;
20776;SDS011;10548;47.504;8.248;2024-03-08T08:23:32;40.83;;;24.20;;
20776;SDS011;10548;47.504;8.248;2024-03-08T08:26:01;44.77;;;23.73;;
20776;SDS011;10548;47.504;8.248;2024-03-08T08:28:31;44.53;;;24.17;;
20776;SDS011;10548;47.504;8.248;2024-03-08T08:30:59;44.07;;;24.87;;
20776;SDS011;10548;47.504;8.248;2024-03-08T08:33:26;43.30;;;24.33;;
20776;SDS011;10548;47.504;8.248;2024-03-08T08:35:54;43.20;;;23.07;;
20776;SDS011;10548;47.504;8.248;2024-03-08T08:38:23;41.40;;;21.20;;
20776;SDS011;10548;47.504;8.248;2024-03-08T08:40:51;39.93;;;23.93;;
20776;SDS011;10548;47.504;8.248;2024-03-08T08:43:19;37.83;;;22.63;;
20776;SDS011;10548;47.504;8.248;2024-03-08T08:45:50;38.47;;;23.77;;
20776;SDS011;10548;47.504;8.248;2024-03-08T08:48:21;41.53;;;24.17;;
20776;SDS011;10548;47.504;8.248;2024-03-08T08:50:49;40.87;;;24.37;;
20776;SDS011;10548;47.504;8.248;2024-03-08T08:53:18;39.37;;;23.33;;
20776;SDS011;10548;47.504;8.248;2024-03-08T08:55:46;37.73;;;22.20;;
20776;SDS011;10548;47.504;8.248;2024-03-08T08:58:14;35.43;;;21.77;;
20776;SDS011;10548;47.504;8.248;2024-03-08T09:00:41;37.03;;;22.93;;
20776;SDS011;10548;47.504;8.248;2024-03-08T09:03:10;36.53;;;21.70;;
20776;SDS011;10548;47.504;8.248;2024-03-08T09:05:38;39.67;;;23.50;;
20776;SDS011;10548;47.504;8.248;2024-03-08T09:08:11;40.37;;;23.20;;
20776;SDS011;10548;47.504;8.248;2024-03-08T09:10:39;43.20;;;21.97;;
20776;SDS011;10548;47.504;8.248;2024-03-08T09:13:07;38.40;;;22.33;;
20776;SDS011;10548;47.504;8.248;2024-03-08T09:15:43;38.03;;;21.63;;
20776;SDS011;10548;47.504;8.248;2024-03-08T09:18:12;41.13;;;25.00;;
20776;SDS011;10548;47.504;8.248;2024-03-08T09:20:39;43.40;;;24.00;;
20776;SDS011;10548;47.504;8.248;2024-03-08T09:23:07;40.63;;;24.20;;
20776;SDS011;10548;47.504;8.248;2024-03-08T09:25:35;36.43;;;21.70;;
20776;SDS011;10548;47.504;8.248;2024-03-08T09:28:03;39.77;;;22.73;;
20776;SDS011;10548;47.504;8.248;2024-03-08T09:30:32;42.17;;;22.60;;
20776;SDS011;10548;47.504;8.248;2024-03-08T09:33:01;39.23;;;24.17;;
20776;SDS011;10548;47.504;8.248;2024-03-08T09:35:29;36.53;;;22.40;;
20776;SDS011;10548;47.504;8.248;2024-03-08T09:37:57;35.07;;;22.17;;
20776;SDS011;10548;47.504;8.248;2024-03-08T09:40:25;37.13;;;22.40;;
20776;SDS011;10548;47.504;8.248;2024-03-08T09:42:54;36.73;;;22.47;;
20776;SDS011;10548;47.504;8.248;2024-03-08T09:45:22;35.87;;;21.03;;
20776;SDS011;10548;47.504;8.248;2024-03-08T09:47:50;34.70;;;21.37;;
20776;SDS011;10548;47.504;8.248;2024-03-08T09:50:18;40.60;;;22.37;;
20776;SDS011;10548;47.504;8.248;2024-03-08T09:52:46;34.13;;;21.17;;
20776;SDS011;10548;47.504;8.248;2024-03-08T09:55:15;40.57;;;22.73;;
20776;SDS011;10548;47.504;8.248;2024-03-08T09:57:44;40.13;;;22.40;;
20776;SDS011;10548;47.504;8.248;2024-03-08T10:00:41;35.50;;;21.20;;
20776;SDS011;10548;47.504;8.248;2024-03-08T10:03:22;34.23;;;21.33;;
20776;SDS011;10548;47.504;8.248;2024-03-08T10:05:49;33.77;;;20.70;;
20776;SDS011;10548;47.504;8.248;2024-03-08T10:08:17;39.70;;;22.13;;
20776;SDS011;10548;47.504;8.248;2024-03-08T10:10:45;33.20;;;20.67;;
20776;SDS011;10548;47.504;8.248;2024-03-08T10:13:13;35.20;;;20.47;;
20776;SDS011;10548;47.504;8.248;2024-03-08T10:15:43;34.57;;;21.53;;
20776;SDS011;10548;47.504;8.248;2024-03-08T10:18:10;34.10;;;21.53;;
20776;SDS011;10548;47.504;8.248;2024-03-08T10:20:38;42.80;;;22.20;;
20776;SDS011;10548;47.504;8.248;2024-03-08T10:23:05;34.00;;;21.47;;
20776;SDS011;10548;47.504;8.248;2024-03-08T10:25:37;33.27;;;19.97;;
20776;SDS011;10548;47.504;8.248;2024-03-08T10:28:05;34.43;;;21.33;;
20776;SDS011;10548;47.504;8.248;2024-03-08T10:30:33;33.87;;;21.60;;
20776;SDS011;10548;47.504;8.248;2024-03-08T10:33:01;31.23;;;20.30;;
20776;SDS011;10548;47.504;8.248;2024-03-08T10:35:32;29.50;;;19.03;;
20776;SDS011;10548;47.504;8.248;2024-03-08T10:38:00;32.83;;;20.37;;
20776;SDS011;10548;47.504;8.248;2024-03-08T10:40:31;31.93;;;20.07;;
20776;SDS011;10548;47.504;8.248;2024-03-08T10:42:59;33.77;;;21.27;;
20776;SDS011;10548;47.504;8.248;2024-03-08T10:48:33;30.23;;;19.17;;
20776;SDS011;10548;47.504;8.248;2024-03-08T10:51:06;30.03;;;19.93;;
20776;SDS011;10548;47.504;8.248;2024-03-08T10:53:38;30.60;;;19.77;;
20776;SDS011;10548;47.504;8.248;2024-03-08T10:56:08;32.07;;;19.93;;
20776;SDS011;10548;47.504;8.248;2024-03-08T10:58:36;27.37;;;18.50;;
20776;SDS011;10548;47.504;8.248;2024-03-08T11:01:05;31.90;;;20.37;;
20776;SDS011;10548;47.504;8.248;2024-03-08T11:03:46;34.10;;;20.40;;
20776;SDS011;10548;47.504;8.248;2024-03-08T11:11:51;28.37;;;19.03;;
20776;SDS011;10548;47.504;8.248;2024-03-08T11:17:05;32.83;;;18.60;;
20776;SDS011;10548;47.504;8.248;2024-03-08T11:19:33;30.17;;;20.47;;
20776;SDS011;10548;47.504;8.248;2024-03-08T11:22:02;28.77;;;19.50;;
20776;SDS011;10548;47.504;8.248;2024-03-08T11:24:36;28.50;;;19.93;;
20776;SDS011;10548;47.504;8.248;2024-03-08T11:27:07;29.97;;;20.27;;
20776;SDS011;10548;47.504;8.248;2024-03-08T11:29:36;29.37;;;19.07;;
20776;SDS011;10548;47.504;8.248;2024-03-08T11:32:07;28.37;;;19.53;;
20776;SDS011;10548;47.504;8.248;2024-03-08T11:34:36;27.97;;;19.17;;
20776;SDS011;10548;47.504;8.248;2024-03-08T11:37:04;26.83;;;18.47;;
20776;SDS011;10548;47.504;8.248;2024-03-08T11:39:36;28.53;;;18.33;;
20776;SDS011;10548;47.504;8.248;2024-03-08T11:42:04;29.00;;;19.37;;
20776;SDS011;10548;47.504;8.248;2024-03-08T11:44:32;27.17;;;19.27;;
20776;SDS011;10548;47.504;8.248;2024-03-08T11:46:59;28.87;;;18.83;;
20776;SDS011;10548;47.504;8.248;2024-03-08T11:49:27;33.00;;;18.63;;
20776;SDS011;10548;47.504;8.248;2024-03-08T11:51:55;27.50;;;18.10;;
20776;SDS011;10548;47.504;8.248;2024-03-08T11:54:23;27.23;;;18.53;;
20776;SDS011;10548;47.504;8.248;2024-03-08T11:56:51;28.40;;;18.20;;
20776;SDS011;10548;47.504;8.248;2024-03-08T11:59:19;31.67;;;19.53;;
20776;SDS011;10548;47.504;8.248;2024-03-08T12:01:59;24.17;;;18.27;;
20776;SDS011;10548;47.504;8.248;2024-03-08T12:04:28;26.03;;;18.93;;
20776;SDS011;10548;47.504;8.248;2024-03-08T12:07:00;27.67;;;18.53;;
20776;SDS011;10548;47.504;8.248;2024-03-08T12:09:35;30.93;;;18.83;;
20776;SDS011;10548;47.504;8.248;2024-03-08T12:12:03;28.30;;;17.17;;
20776;SDS011;10548;47.504;8.248;2024-03-08T12:14:35;23.33;;;17.53;;
20776;SDS011;10548;47.504;8.248;2024-03-08T12:17:04;24.90;;;17.90;;
20776;SDS011;10548;47.504;8.248;2024-03-08T12:19:32;26.73;;;18.80;;
20776;SDS011;10548;47.504;8.248;2024-03-08T12:22:07;26.67;;;18.97;;
20776;SDS011;10548;47.504;8.248;2024-03-08T12:24:35;26.50;;;19.17;;
20776;SDS011;10548;47.504;8.248;2024-03-08T12:27:17;26.47;;;17.50;;
20776;SDS011;10548;47.504;8.248;2024-03-08T12:29:45;26.13;;;17.97;;
20776;SDS011;10548;47.504;8.248;2024-03-08T12:32:13;27.83;;;19.70;;
20776;SDS011;10548;47.504;8.248;2024-03-08T12:34:41;25.80;;;18.20;;
20776;SDS011;10548;47.504;8.248;2024-03-08T12:37:09;24.33;;;17.23;;
20776;SDS011;10548;47.504;8.248;2024-03-08T12:39:40;24.80;;;17.40;;
20776;SDS011;10548;47.504;8.248;2024-03-08T12:42:12;25.23;;;18.33;;
20776;SDS011;10548;47.504;8.248;2024-03-08T12:44:40;25.83;;;19.30;;
20776;SDS011;10548;47.504;8.248;2024-03-08T12:47:10;26.03;;;17.90;;
20776;SDS011;10548;47.504;8.248;2024-03-08T12:49:37;26.23;;;17.83;;
20776;SDS011;10548;47.504;8.248;2024-03-08T12:52:08;22.80;;;18.03;;
20776;SDS011;10548;47.504;8.248;2024-03-08T12:54:36;23.10;;;16.93;;
20776;SDS011;10548;47.504;8.248;2024-03-08T12:57:04;27.20;;;17.63;;
20776;SDS011;10548;47.504;8.248;2024-03-08T12:59:31;23.90;;;16.77;;
20776;SDS011;10548;47.504;8.248;2024-03-08T13:01:59;24.73;;;17.53;;
20776;SDS011;10548;47.504;8.248;2024-03-08T13:04:27;27.23;;;18.27;;
20776;SDS011;10548;47.504;8.248;2024-03-08T13:06:54;25.30;;;17.47;;
20776;SDS011;10548;47.504;8.248;2024-03-08T13:09:22;27.37;;;18.03;;
20776;SDS011;10548;47.504;8.248;2024-03-08T13:11:50;24.97;;;16.57;;
20776;SDS011;10548;47.504;8.248;2024-03-08T13:14:20;26.97;;;17.03;;
20776;SDS011;10548;47.504;8.248;2024-03-08T13:16:47;25.87;;;18.93;;
20776;SDS011;10548;47.504;8.248;2024-03-08T13:19:15;26.60;;;17.43;;
20776;SDS011;10548;47.504;8.248;2024-03-08T13:21:43;24.53;;;17.70;;
20776;SDS011;10548;47.504;8.248;2024-03-08T13:24:16;23.90;;;16.97;;
20776;SDS011;10548;47.504;8.248;2024-03-08T13:26:46;27.67;;;17.80;;
20776;SDS011;10548;47.504;8.248;2024-03-08T13:29:14;26.17;;;17.20;;
20776;SDS011;10548;47.504;8.248;2024-03-08T13:31:42;26.07;;;17.73;;
20776;SDS011;10548;47.504;8.248;2024-03-08T13:34:09;23.97;;;17.47;;
20776;SDS011;10548;47.504;8.248;2024-03-08T13:36:38;25.77;;;17.17;;
20776;SDS011;10548;47.504;8.248;2024-03-08T13:39:08;23.33;;;15.77;;
20776;SDS011;10548;47.504;8.248;2024-03-08T13:41:42;23.43;;;16.17;;
20776;SDS011;10548;47.504;8.248;2024-03-08T13:44:11;21.77;;;15.20;;
20776;SDS011;10548;47.504;8.248;2024-03-08T13:46:39;23.37;;;16.33;;
20776;SDS011;10548;47.504;8.248;2024-03-08T13:49:06;21.90;;;16.13;;
20776;SDS011;10548;47.504;8.248;2024-03-08T13:51:36;22.07;;;15.10;;
20776;SDS011;10548;47.504;8.248;2024-03-08T13:54:04;20.20;;;14.60;;
20776;SDS011;10548;47.504;8.248;2024-03-08T13:56:33;20.90;;;15.23;;
20776;SDS011;10548;47.504;8.248;2024-03-08T13:59:01;23.10;;;15.77;;
20776;SDS011;10548;47.504;8.248;2024-03-08T14:01:29;21.97;;;15.10;;
20776;SDS011;10548;47.504;8.248;2024-03-08T14:03:57;27.20;;;16.40;;
20776;SDS011;10548;47.504;8.248;2024-03-08T14:06:26;24.90;;;16.33;;
20776;SDS011;10548;47.504;8.248;2024-03-08T14:08:53;21.23;;;15.20;;
20776;SDS011;10548;47.504;8.248;2024-03-08T14:11:23;22.67;;;15.30;;
20776;SDS011;10548;47.504;8.248;2024-03-08T14:13:51;20.30;;;15.20;;
20776;SDS011;10548;47.504;8.248;2024-03-08T14:16:20;19.90;;;13.33;;
20776;SDS011;10548;47.504;8.248;2024-03-08T14:18:48;18.20;;;13.07;;
20776;SDS011;10548;47.504;8.248;2024-03-08T14:21:16;22.73;;;14.60;;
20776;SDS011;10548;47.504;8.248;2024-03-08T14:23:44;21.10;;;13.40;;
20776;SDS011;10548;47.504;8.248;2024-03-08T14:26:11;18.60;;;13.10;;
20776;SDS011;10548;47.504;8.248;2024-03-08T14:28:39;21.50;;;14.10;;
20776;SDS011;10548;47.504;8.248;2024-03-08T14:31:07;22.73;;;14.10;;
20776;SDS011;10548;47.504;8.248;2024-03-08T14:33:38;19.37;;;13.07;;
20776;SDS011;10548;47.504;8.248;2024-03-08T14:36:06;17.17;;;12.83;;
20776;SDS011;10548;47.504;8.248;2024-03-08T14:38:33;18.20;;;13.87;;
20776;SDS011;10548;47.504;8.248;2024-03-08T14:41:01;18.23;;;13.20;;